Time;durP1;ratioP1;P1;durP2;ratioP2;P2;SDS_P1;SDS_P2;PMS_P1;PMS_P2;Temp;Humidity;BMP_temperature;BMP_pressure;BME280_temperature;BME280_humidity;BME280_pressure;Samples;Min_cycle;Max_cycle;Signal;HPM_P1;HPM_P2
2023/04/05 00:01:07;;;;;;;;;17.75;16.75;;;;;10.20;40.66;101714.28;5013871;28;46336;-62
2023/04/05 00:03:34;;;;;;;;;18.00;16.00;;;;;10.23;41.38;101720.25;5012495;28;45283;-63
2023/04/05 00:06:01;;;;;;;;;20.40;19.80;;;;;10.19;41.33;101720.81;5013494;28;45444;-62
2023/04/05 00:08:27;;;;;;;;;20.60;15.80;;;;;10.16;41.45;101717.38;5012690;28;45527;-62
2023/04/05 00:10:53;;;;;;;;;28.25;20.25;;;;;10.01;41.28;101714.63;5018617;28;45391;-62
2023/04/05 00:13:18;;;;;;;;;18.50;15.50;;;;;10.08;41.15;101713.88;5020172;28;45342;-62
2023/04/05 00:15:44;;;;;;;;;16.00;14.25;;;;;9.96;41.00;101686.88;5035864;28;45258;-62
2023/04/05 00:18:20;;;;;;;;;20.75;18.50;;;;;10.17;40.82;101724.59;5019309;28;45267;-62
2023/04/05 00:20:47;;;;;;;;;16.80;16.20;;;;;10.14;41.73;101722.22;4968626;28;47102;-62
2023/04/05 00:23:13;;;;;;;;;15.80;15.80;;;;;10.06;41.06;101714.06;5000162;28;45489;-62
2023/04/05 00:25:39;;;;;;;;;18.50;18.00;;;;;9.91;41.36;101694.81;4982739;28;45410;-61
2023/04/05 00:28:04;;;;;;;;;15.00;14.00;;;;;10.00;41.83;101720.28;5000220;28;45370;-62
2023/04/05 00:30:30;;;;;;;;;18.50;15.75;;;;;9.96;41.30;101716.19;4998870;28;48490;-62
2023/04/05 00:32:56;;;;;;;;;14.50;14.50;;;;;9.76;41.49;101673.69;5000325;28;45444;-62
2023/04/05 00:35:21;;;;;;;;;19.50;16.50;;;;;10.03;40.98;101718.03;5000390;28;45444;-63
2023/04/05 00:37:47;;;;;;;;;18.50;17.25;;;;;10.02;41.02;101719.06;5000483;28;45413;-62
2023/04/05 00:40:12;;;;;;;;;13.75;13.75;;;;;9.92;41.23;101714.88;4999909;28;46261;-62
2023/04/05 00:42:38;;;;;;;;;16.50;15.00;;;;;9.77;41.61;101691.00;5000127;28;45370;-62
2023/04/05 00:45:03;;;;;;;;;15.50;15.50;;;;;9.95;41.28;101709.88;5000187;28;45274;-61
2023/04/05 00:47:29;;;;;;;;;20.75;16.00;;;;;9.93;41.09;101711.94;4999910;28;45267;-62
2023/04/05 00:49:54;;;;;;;;;13.50;12.25;;;;;9.93;40.33;101706.44;4998448;28;46440;-60
2023/04/05 00:52:22;;;;;;;;;16.25;15.25;;;;;9.95;41.22;101698.91;4998551;28;45385;-62
2023/04/05 00:54:48;;;;;;;;;14.80;12.20;;;;;9.90;41.34;101707.69;4998739;28;45323;-61
2023/04/05 00:57:13;;;;;;;;;19.00;14.00;;;;;9.30;41.65;101603.31;4987165;28;45662;-62
2023/04/05 00:59:39;;;;;;;;;14.50;13.25;;;;;9.90;41.44;101709.56;5001701;28;45956;-62
2023/04/05 01:02:15;;;;;;;;;17.25;16.50;;;;;9.83;41.51;101695.72;5018411;28;45873;-61
2023/04/05 01:04:48;;;;;;;;;23.20;19.00;;;;;9.86;41.49;101700.00;5018071;28;45401;-61
2023/04/05 01:07:32;;;;;;;;;19.60;19.40;;;;;9.57;41.80;101657.72;5003829;28;45409;-61
2023/04/05 01:09:58;;;;;;;;;17.80;15.00;;;;;9.81;41.90;101706.03;5019372;28;45311;-62
2023/04/05 01:12:26;;;;;;;;;20.20;17.20;;;;;9.67;41.97;101704.09;4985401;28;45441;-62
2023/04/05 01:14:53;;;;;;;;;14.00;12.00;;;;;9.69;42.68;101696.53;5019252;28;45377;-62
2023/04/05 01:17:26;;;;;;;;;16.20;14.40;;;;;9.68;42.37;101698.44;5020100;28;45783;-60
2023/04/05 01:19:57;;;;;;;;;22.00;16.60;;;;;9.59;41.76;101681.19;5019349;28;47695;-62
2023/04/05 01:23:03;;;;;;;;;23.40;16.20;;;;;9.63;41.09;101685.28;5014403;28;45276;-61
2023/04/05 01:25:43;;;;;;;;;16.20;15.80;;;;;9.66;41.13;101684.03;5015294;28;45407;-61
2023/04/05 01:28:34;;;;;;;;;19.20;14.80;;;;;9.44;41.57;101644.66;5031334;28;45371;-61
2023/04/05 01:31:23;;;;;;;;;15.00;12.40;;;;;9.60;41.43;101668.31;5014761;28;46459;-62
2023/04/05 01:33:59;;;;;;;;;20.00;15.60;;;;;9.52;41.42;101654.69;5015037;28;45679;-61
2023/04/05 01:36:30;;;;;;;;;20.80;17.80;;;;;9.60;41.04;101662.84;5016271;28;45393;-62
2023/04/05 01:38:55;;;;;;;;;14.60;14.00;;;;;9.52;41.12;101651.94;5014400;28;45410;-62
2023/04/05 01:41:21;;;;;;;;;17.00;15.25;;;;;9.17;41.21;101613.97;4998257;28;45520;-62
2023/04/05 01:43:46;;;;;;;;;15.25;15.00;;;;;9.32;41.13;101661.50;5014166;28;45314;-62
2023/04/05 01:46:12;;;;;;;;;17.00;14.00;;;;;9.15;41.63;101636.09;5015951;28;45369;-63
2023/04/05 01:48:37;;;;;;;;;17.75;15.00;;;;;9.35;41.56;101663.88;5015809;28;45352;-62
2023/04/05 01:51:03;;;;;;;;;12.25;12.00;;;;;9.30;41.41;101658.09;5015510;28;46019;-62
2023/04/05 01:53:28;;;;;;;;;19.50;19.00;;;;;9.36;41.31;101659.25;5015774;28;45394;-61
2023/04/05 01:56:01;;;;;;;;;13.25;13.25;;;;;9.25;40.54;101635.88;5015912;28;45199;-62
2023/04/05 01:58:27;;;;;;;;;9.60;9.60;;;;;9.36;41.61;101651.88;5005543;28;45424;-63
2023/04/05 02:00:55;;;;;;;;;12.25;12.25;;;;;9.39;41.84;101652.56;4994514;28;46256;-61
2023/04/05 02:03:24;;;;;;;;;13.40;12.40;;;;;9.42;41.46;101661.25;4994612;28;45444;-61
2023/04/05 02:05:50;;;;;;;;;18.40;15.60;;;;;9.35;41.29;101655.66;4967615;28;45429;-62
2023/04/05 02:08:16;;;;;;;;;14.80;14.80;;;;;9.16;41.94;101624.09;4995962;28;45586;-62
2023/04/05 02:10:41;;;;;;;;;16.25;15.00;;;;;9.27;41.63;101649.34;4978493;28;47405;-62
2023/04/05 02:13:07;;;;;;;;;24.00;16.25;;;;;9.27;41.54;101633.78;4995323;28;45405;-62
2023/04/05 02:15:32;;;;;;;;;16.25;14.75;;;;;9.39;41.34;101645.16;4994300;28;45394;-63
2023/04/05 02:18:01;;;;;;;;;17.25;16.25;;;;;9.36;41.57;101640.91;4994807;28;45562;-61
2023/04/05 02:20:27;;;;;;;;;22.80;14.00;;;;;9.09;41.79;101593.00;4994535;28;46585;-62
2023/04/05 02:22:53;;;;;;;;;17.50;15.50;;;;;9.11;41.19;101607.34;5011095;28;45330;-61
2023/04/05 02:25:19;;;;;;;;;16.75;14.25;;;;;9.27;41.77;101628.31;4995698;28;45379;-61
2023/04/05 02:27:44;;;;;;;;;17.50;13.50;;;;;9.30;41.73;101629.84;4994305;28;45544;-61
2023/04/05 02:30:12;;;;;;;;;18.25;13.75;;;;;9.26;41.62;101617.53;4994044;28;45901;-62
2023/04/05 02:32:38;;;;;;;;;23.40;19.40;;;;;9.36;42.75;101623.63;5010140;28;45525;-63
2023/04/05 02:35:04;;;;;;;;;23.40;19.80;;;;;9.33;43.32;101627.59;4996127;28;45386;-62
2023/04/05 02:37:30;;;;;;;;;28.25;23.50;;;;;9.39;43.77;101639.69;4995571;28;45651;-60
2023/04/05 02:39:55;;;;;;;;;24.75;21.50;;;;;9.37;43.59;101628.06;4995036;28;46726;-63
2023/04/05 02:42:21;;;;;;;;;19.75;18.25;;;;;9.20;44.22;101606.28;4995474;28;45221;-61
2023/04/05 02:44:46;;;;;;;;;24.00;21.25;;;;;9.00;44.73;101573.03;4995301;28;45617;-61
2023/04/05 02:47:16;;;;;;;;;30.00;23.25;;;;;9.05;44.72;101592.50;4995681;28;45291;-61
2023/04/05 02:49:41;;;;;;;;;22.80;20.60;;;;;9.19;44.94;101626.47;4993939;28;46091;-61
2023/04/05 02:52:06;;;;;;;;;27.25;23.50;;;;;9.17;45.27;101625.81;4995620;28;45383;-62
2023/04/05 02:54:32;;;;;;;;;26.75;21.50;;;;;8.90;45.34;101577.88;4995207;28;45339;-63
2023/04/05 02:57:01;;;;;;;;;24.00;22.00;;;;;8.92;45.79;101593.09;4995704;28;45468;-63
2023/04/05 02:59:26;;;;;;;;;25.60;23.00;;;;;8.98;44.84;101609.84;5012937;28;46060;-61
2023/04/05 03:01:52;;;;;;;;;26.25;18.75;;;;;8.80;45.81;101587.16;5030463;28;45404;-60
2023/04/05 03:04:17;;;;;;;;;30.00;23.00;;;;;8.96;45.74;101607.25;5014720;28;45420;-62
2023/04/05 03:06:47;;;;;;;;;25.50;23.50;;;;;9.04;45.16;101615.47;5013803;28;45454;-61
2023/04/05 03:09:13;;;;;;;;;25.00;22.80;;;;;8.88;45.41;101599.97;5014606;28;46793;-62
2023/04/05 03:11:39;;;;;;;;;22.20;18.60;;;;;8.99;45.56;101606.91;5014508;28;45402;-63
2023/04/05 03:14:04;;;;;;;;;24.25;23.50;;;;;8.68;45.44;101570.31;5014622;28;45435;-62
2023/04/05 03:16:30;;;;;;;;;23.00;21.75;;;;;8.88;45.30;101601.84;5014688;28;45219;-62
2023/04/05 03:18:56;;;;;;;;;27.50;23.25;;;;;8.62;45.11;101565.56;5012765;28;48073;-62
2023/04/05 03:21:21;;;;;;;;;19.25;17.50;;;;;8.87;45.98;101619.31;5013258;28;45414;-61
2023/04/05 03:23:47;;;;;;;;;23.75;23.75;;;;;8.68;45.75;101588.59;5014097;28;45328;-62
2023/04/05 03:26:13;;;;;;;;;22.00;20.25;;;;;8.84;45.73;101617.78;5014809;28;45419;-64
2023/04/05 03:28:43;;;;;;;;;24.25;19.00;;;;;8.56;45.68;101579.94;5013979;28;46610;-61
2023/04/05 03:31:10;;;;;;;;;21.00;18.60;;;;;8.80;45.40;101608.19;5029497;28;45533;-62
2023/04/05 03:33:35;;;;;;;;;19.60;19.00;;;;;8.82;45.76;101614.38;5014232;28;45278;-62
2023/04/05 03:36:01;;;;;;;;;24.75;19.25;;;;;8.81;45.70;101616.25;5014946;28;45144;-62
2023/04/05 03:38:27;;;;;;;;;25.00;19.00;;;;;8.82;45.39;101617.94;5012977;28;45366;-62
2023/04/05 03:40:53;;;;;;;;;28.20;23.00;;;;;8.81;45.94;101616.25;5014135;28;45365;-61
2023/04/05 03:43:18;;;;;;;;;23.75;20.50;;;;;8.75;45.45;101607.91;5012636;28;45240;-61
2023/04/05 03:45:44;;;;;;;;;27.75;17.50;;;;;8.78;45.97;101627.56;5014037;28;45433;-60
2023/04/05 03:48:09;;;;;;;;;28.50;24.00;;;;;8.73;46.05;101623.63;5012703;28;45994;-62
2023/04/05 03:50:35;;;;;;;;;25.00;21.00;;;;;8.46;45.64;101579.25;5012948;28;45520;-62
2023/04/05 03:53:00;;;;;;;;;23.50;19.50;;;;;8.71;46.08;101626.56;5029352;28;45386;-63
2023/04/05 03:55:26;;;;;;;;;23.50;21.50;;;;;8.43;45.99;101576.88;5014449;28;45477;-62
2023/04/05 03:57:52;;;;;;;;;27.50;20.75;;;;;8.41;46.06;101579.78;5008617;28;46783;-62
2023/04/05 04:00:18;;;;;;;;;23.60;21.40;;;;;8.64;45.67;101620.94;4993066;28;45506;-62
2023/04/05 04:02:45;;;;;;;;;25.40;21.00;;;;;8.57;46.05;101624.56;4993979;28;45453;-61
2023/04/05 04:05:11;;;;;;;;;24.60;23.00;;;;;8.47;46.38;101622.88;4994587;28;45501;-62
2023/04/05 04:07:36;;;;;;;;;21.50;17.50;;;;;8.50;45.87;101625.22;4993704;28;46048;-60
2023/04/05 04:10:05;;;;;;;;;30.50;24.50;;;;;8.35;46.56;101600.50;4992602;28;45387;-60
2023/04/05 04:12:31;;;;;;;;;23.60;20.40;;;;;8.44;46.28;101615.03;4993965;28;45505;-62
2023/04/05 04:14:56;;;;;;;;;29.50;22.00;;;;;8.39;46.48;101614.69;4993686;28;45353;-62
2023/04/05 04:17:29;;;;;;;;;25.00;17.75;;;;;8.38;46.20;101613.81;4994072;28;45397;-61
2023/04/05 04:19:55;;;;;;;;;32.40;24.80;;;;;8.40;46.23;101603.56;5008513;28;46280;-62
2023/04/05 04:22:21;;;;;;;;;23.60;21.40;;;;;8.15;46.81;101575.44;4994083;28;45420;-61
2023/04/05 04:24:48;;;;;;;;;26.80;22.20;;;;;8.33;46.76;101601.72;4956018;28;45405;-61
2023/04/05 04:27:15;;;;;;;;;22.20;20.20;;;;;8.07;46.51;101559.91;4993416;28;46072;-61
2023/04/05 04:29:45;;;;;;;;;27.00;22.40;;;;;8.28;46.17;101605.00;4975592;28;45314;-61
2023/04/05 04:32:14;;;;;;;;;26.60;23.80;;;;;8.19;47.04;101604.16;5007518;28;45510;-62
2023/04/05 04:34:43;;;;;;;;;22.00;20.80;;;;;8.21;46.90;101607.56;4992565;28;45723;-61
2023/04/05 04:37:16;;;;;;;;;29.60;25.20;;;;;8.19;46.58;101606.88;4992621;28;45260;-62
2023/04/05 04:39:43;;;;;;;;;18.60;16.60;;;;;7.92;46.84;101572.59;5008370;28;45381;-62
2023/04/05 04:42:09;;;;;;;;;23.80;16.40;;;;;8.10;46.69;101613.38;4993724;28;45374;-62
2023/04/05 04:44:35;;;;;;;;;25.25;21.00;;;;;8.16;46.39;101612.69;4993350;28;45576;-61
2023/04/05 04:47:00;;;;;;;;;26.25;20.50;;;;;8.13;46.81;101607.59;4993142;28;46876;-61
2023/04/05 04:49:27;;;;;;;;;27.00;25.50;;;;;8.13;46.77;101602.13;4993143;28;46022;-61
2023/04/05 04:51:52;;;;;;;;;26.40;23.80;;;;;8.06;47.11;101601.94;4992152;28;45512;-62
2023/04/05 04:54:19;;;;;;;;;24.50;23.75;;;;;8.11;46.98;101610.47;4992911;28;45398;-61
2023/04/05 04:56:45;;;;;;;;;27.00;21.20;;;;;8.09;46.79;101607.06;4993269;28;45838;-61
2023/04/05 04:59:12;;;;;;;;;18.00;15.00;;;;;7.93;47.36;101582.50;5008309;28;45340;-62
2023/04/05 05:01:39;;;;;;;;;26.50;24.25;;;;;8.09;46.62;101606.22;5016632;28;45222;-62
2023/04/05 05:04:05;;;;;;;;;29.20;27.00;;;;;8.00;47.00;101584.38;4999203;28;45945;-61
2023/04/05 05:06:30;;;;;;;;;22.75;19.50;;;;;8.09;47.00;101606.22;4994861;28;45939;-60
2023/04/05 05:08:56;;;;;;;;;25.50;23.75;;;;;8.08;46.66;101597.16;4996321;28;45376;-59
2023/04/05 05:11:21;;;;;;;;;27.25;25.00;;;;;7.98;46.91;101582.81;4996648;28;45431;-60
2023/04/05 05:13:47;;;;;;;;;27.75;25.00;;;;;8.00;46.79;101588.97;4996643;28;45793;-63
2023/04/05 05:16:12;;;;;;;;;30.50;26.00;;;;;8.06;46.50;101601.09;5011491;28;46425;-61
2023/04/05 05:18:40;;;;;;;;;27.50;22.50;;;;;8.02;46.75;101597.00;4996181;28;45389;-60
2023/04/05 05:21:05;;;;;;;;;25.80;21.00;;;;;7.99;47.01;101590.88;4998044;28;45365;-60
2023/04/05 05:23:31;;;;;;;;;27.25;25.75;;;;;7.95;47.20;101584.03;4976750;28;45346;-61
2023/04/05 05:26:00;;;;;;;;;26.50;22.50;;;;;7.70;47.19;101543.06;4974848;28;46496;-61
2023/04/05 05:28:26;;;;;;;;;22.20;20.60;;;;;7.85;47.10;101569.72;4990620;28;45444;-61
2023/04/05 05:30:51;;;;;;;;;26.25;21.25;;;;;7.71;46.86;101561.19;4976896;28;45394;-60
2023/04/05 05:33:17;;;;;;;;;30.00;26.25;;;;;7.94;47.17;101596.00;4976563;28;45588;-61
2023/04/05 05:35:43;;;;;;;;;26.75;25.75;;;;;7.72;47.16;101551.09;4991904;28;46020;-62
2023/04/05 05:38:08;;;;;;;;;27.50;24.50;;;;;7.92;47.63;101589.84;4975136;28;45396;-60
2023/04/05 05:40:34;;;;;;;;;26.75;26.50;;;;;7.93;47.29;101585.22;4976099;28;45262;-60
2023/04/05 05:42:59;;;;;;;;;29.50;22.25;;;;;7.98;47.29;101599.22;4976988;28;45525;-61
2023/04/05 05:45:26;;;;;;;;;26.00;24.75;;;;;8.00;47.28;101597.16;4977325;28;46266;-62
2023/04/05 05:47:51;;;;;;;;;22.80;22.20;;;;;7.99;47.37;101596.34;4976968;28;45434;-62
2023/04/05 05:50:19;;;;;;;;;27.50;22.50;;;;;7.98;47.15;101597.38;4976681;28;45389;-62
2023/04/05 05:52:45;;;;;;;;;27.25;24.50;;;;;7.91;47.96;101590.88;5005074;28;45601;-62
2023/04/05 05:55:10;;;;;;;;;39.00;34.75;;;;;7.98;47.43;101594.63;4996216;28;45782;-61
2023/04/05 05:57:37;;;;;;;;;23.50;22.00;;;;;8.01;47.13;101598.91;4995841;28;45764;-61
2023/04/05 06:00:07;;;;;;;;;25.40;23.20;;;;;7.74;47.51;101554.50;5015815;28;45369;-61
2023/04/05 06:02:33;;;;;;;;;30.00;27.00;;;;;7.75;47.19;101549.91;5014441;28;45386;-61
2023/04/05 06:04:59;;;;;;;;;22.25;21.50;;;;;8.06;47.37;101601.09;4997605;28;45922;-61
2023/04/05 06:07:24;;;;;;;;;27.50;25.00;;;;;8.03;47.53;101585.03;5015238;28;45264;-60
2023/04/05 06:09:50;;;;;;;;;22.50;21.75;;;;;8.06;47.34;101598.38;5015472;28;45431;-62
2023/04/05 06:12:15;;;;;;;;;24.25;24.25;;;;;8.00;47.37;101595.31;5016094;28;45539;-62
2023/04/05 06:14:41;;;;;;;;;38.75;29.50;;;;;7.86;47.52;101572.25;5009758;28;45468;-61
2023/04/05 06:17:06;;;;;;;;;29.75;27.25;;;;;8.07;47.78;101602.81;5011695;28;45415;-61
2023/04/05 06:19:32;;;;;;;;;25.00;23.25;;;;;8.07;47.68;101602.81;5015333;28;45415;-64
2023/04/05 06:21:59;;;;;;;;;27.75;23.25;;;;;8.09;47.71;101608.94;5011732;28;45452;-61
2023/04/05 06:24:26;;;;;;;;;34.00;28.00;;;;;8.03;47.74;101601.44;5009316;28;46053;-62
2023/04/05 06:26:51;;;;;;;;;29.20;29.20;;;;;8.09;47.58;101611.69;5013506;28;45399;-61
2023/04/05 06:29:17;;;;;;;;;31.25;25.00;;;;;8.11;47.68;101617.84;5012389;28;45820;-61
2023/04/05 06:31:45;;;;;;;;;27.25;26.50;;;;;8.10;47.66;101607.91;5014400;28;45344;-61
2023/04/05 06:34:10;;;;;;;;;30.40;25.80;;;;;8.18;47.90;101615.25;5015348;28;45721;-62
2023/04/05 06:36:36;;;;;;;;;28.00;24.75;;;;;8.20;47.49;101610.44;5014757;28;45462;-59
2023/04/05 06:39:01;;;;;;;;;35.00;26.00;;;;;8.07;47.88;101600.06;5015977;28;45392;-63
2023/04/05 06:41:27;;;;;;;;;28.50;24.25;;;;;8.11;47.55;101612.38;5016323;28;45373;-63
2023/04/05 06:43:52;;;;;;;;;28.25;24.00;;;;;7.97;47.34;101581.13;5029367;28;48463;-62
2023/04/05 06:46:18;;;;;;;;;25.25;23.75;;;;;8.21;47.39;101613.03;5015313;28;45392;-61
2023/04/05 06:48:46;;;;;;;;;36.25;30.00;;;;;8.23;47.56;101624.63;5014684;28;45377;-62
2023/04/05 06:51:11;;;;;;;;;35.80;31.80;;;;;8.24;47.68;101623.63;5014319;28;45407;-60
2023/04/05 06:53:37;;;;;;;;;27.75;25.50;;;;;8.28;47.81;101618.66;5014793;28;46224;-63
2023/04/05 06:56:03;;;;;;;;;27.25;25.50;;;;;8.31;47.90;101618.28;5029895;28;45611;-62
2023/04/05 06:58:29;;;;;;;;;31.75;26.50;;;;;8.38;47.60;101623.94;5009993;28;45408;-63
2023/04/05 07:00:54;;;;;;;;;36.80;27.40;;;;;8.11;47.01;101585.03;4994649;28;45578;-62
2023/04/05 07:03:20;;;;;;;;;33.00;28.25;;;;;8.30;46.67;101602.06;4994823;28;46751;-61
2023/04/05 07:05:52;;;;;;;;;25.50;25.50;;;;;8.28;46.94;101615.94;4994813;28;45404;-61
2023/04/05 07:08:19;;;;;;;;;25.80;24.60;;;;;8.13;47.32;101600.22;4993280;28;45908;-62
2023/04/05 07:10:45;;;;;;;;;35.00;30.00;;;;;8.13;47.42;101597.47;4995103;28;45512;-61
2023/04/05 07:13:10;;;;;;;;;32.75;30.25;;;;;8.46;47.10;101628.50;4994493;28;45440;-60
2023/04/05 07:15:36;;;;;;;;;31.75;27.25;;;;;8.49;47.07;101628.16;4995034;28;45549;-61
2023/04/05 07:18:01;;;;;;;;;33.00;28.00;;;;;8.27;46.71;101598.66;4994632;28;45369;-62
2023/04/05 07:20:27;;;;;;;;;35.50;27.50;;;;;8.54;47.08;101640.31;4993962;28;45419;-62
2023/04/05 07:22:52;;;;;;;;;31.75;29.25;;;;;8.60;46.62;101640.63;4994615;28;46381;-62
2023/04/05 07:25:18;;;;;;;;;27.00;23.00;;;;;8.63;46.31;101640.28;4994581;28;45459;-63
2023/04/05 07:27:43;;;;;;;;;35.25;31.00;;;;;8.63;46.07;101640.28;4977149;28;45408;-62
2023/04/05 07:30:09;;;;;;;;;37.75;32.00;;;;;8.64;46.17;101640.09;4994587;28;45396;-61
2023/04/05 07:32:35;;;;;;;;;29.25;28.00;;;;;8.37;46.89;101614.84;4994786;28;45232;-61
2023/04/05 07:35:00;;;;;;;;;41.00;32.25;;;;;8.63;46.78;101643.88;4994490;28;45403;-62
2023/04/05 07:37:26;;;;;;;;;34.75;33.00;;;;;8.50;46.85;101617.03;4993641;28;45559;-63
2023/04/05 07:39:52;;;;;;;;;38.25;32.75;;;;;8.73;46.87;101643.66;4993523;28;45481;-62
2023/04/05 07:42:20;;;;;;;;;45.75;36.00;;;;;8.56;46.75;101612.78;4993302;28;47401;-61
2023/04/05 07:44:45;;;;;;;;;38.40;33.60;;;;;8.77;46.54;101638.69;4994165;28;45604;-65
2023/04/05 07:47:11;;;;;;;;;38.00;31.50;;;;;8.78;46.68;101641.25;4994260;28;45421;-62
2023/04/05 07:49:36;;;;;;;;;30.25;28.75;;;;;8.73;47.07;101631.84;4993349;28;45559;-62
2023/04/05 07:52:02;;;;;;;;;28.00;24.00;;;;;8.64;46.78;101639.28;4994538;28;46345;-62
2023/04/05 07:54:30;;;;;;;;;33.75;32.75;;;;;8.62;47.33;101630.34;4992753;28;45392;-63
2023/04/05 07:56:57;;;;;;;;;46.40;36.80;;;;;8.58;47.40;101635.34;4993393;28;45244;-62
2023/04/05 07:59:23;;;;;;;;;35.50;29.25;;;;;8.57;47.08;101624.56;5003159;28;45941;-62
2023/04/05 08:01:48;;;;;;;;;36.50;33.50;;;;;8.54;46.58;101603.91;5012407;28;47517;-60
2023/04/05 08:04:14;;;;;;;;;37.25;32.00;;;;;8.27;46.90;101557.63;5012375;28;45337;-60
2023/04/05 08:06:39;;;;;;;;;31.00;26.50;;;;;8.71;46.26;101626.56;5014396;28;45401;-60
2023/04/05 08:09:07;;;;;;;;;37.25;33.75;;;;;8.48;46.35;101580.78;5013922;28;45551;-60
2023/04/05 08:11:32;;;;;;;;;45.40;37.60;;;;;8.66;46.53;101621.63;5013842;28;46799;-60
2023/04/05 08:13:58;;;;;;;;;47.50;33.75;;;;;8.76;46.44;101618.66;4996194;28;45338;-60
2023/04/05 08:16:23;;;;;;;;;38.25;33.75;;;;;8.86;46.42;101625.81;5012562;28;45484;-62
2023/04/05 08:18:49;;;;;;;;;33.50;30.50;;;;;8.91;45.35;101632.44;5014295;28;45475;-61
2023/04/05 08:21:14;;;;;;;;;33.50;23.75;;;;;8.93;45.67;101615.84;5012454;28;45525;-60
2023/04/05 08:23:40;;;;;;;;;33.75;28.50;;;;;9.00;45.33;101625.06;5013070;28;45397;-61
2023/04/05 08:26:06;;;;;;;;;36.25;32.75;;;;;9.05;44.89;101635.47;4976017;28;45435;-62
2023/04/05 08:28:33;;;;;;;;;36.25;32.25;;;;;9.10;44.72;101630.31;4992645;28;45433;-62
2023/04/05 08:30:58;;;;;;;;;39.00;33.80;;;;;9.11;44.44;101620.22;4993730;28;45394;-61
2023/04/05 08:33:25;;;;;;;;;35.00;30.00;;;;;8.93;44.10;101600.25;4994383;28;45508;-62
2023/04/05 08:35:51;;;;;;;;;30.40;30.40;;;;;9.01;44.50;101609.50;4971845;28;45526;-61
2023/04/05 08:38:16;;;;;;;;;33.00;28.00;;;;;9.07;43.60;101615.09;4976536;28;45544;-62
2023/04/05 08:40:44;;;;;;;;;65.50;53.75;;;;;9.00;44.18;101581.25;4994908;28;45448;-62
2023/04/05 08:43:12;;;;;;;;;42.00;36.80;;;;;9.21;43.75;101624.41;4994383;28;45452;-61
2023/04/05 08:45:50;;;;;;;;;56.50;46.50;;;;;9.33;42.30;101638.53;4992339;28;45394;-60
2023/04/05 08:48:16;;;;;;;;;33.40;30.00;;;;;9.35;41.38;101638.38;4994661;28;45421;-60
2023/04/05 08:50:46;;;;;;;;;29.00;19.80;;;;;9.28;40.74;101631.91;4995386;28;45490;-60
2023/04/05 08:53:12;;;;;;;;;27.80;24.40;;;;;9.32;41.28;101622.28;4978258;28;45428;-60
2023/04/05 08:55:38;;;;;;;;;31.00;26.00;;;;;9.19;41.41;101590.84;4993342;28;45374;-61
2023/04/05 08:58:09;;;;;;;;;23.00;23.00;;;;;9.49;41.91;101632.09;4992184;28;45450;-60
2023/04/05 09:00:35;;;;;;;;;30.60;20.80;;;;;9.44;41.57;101600.81;5001835;28;46467;-61
2023/04/05 09:03:02;;;;;;;;;29.75;28.00;;;;;9.73;40.64;101630.16;5015062;28;45657;-60
2023/04/05 09:05:28;;;;;;;;;27.20;22.20;;;;;9.84;40.24;101634.38;4996950;28;45496;-63
2023/04/05 09:07:53;;;;;;;;;25.25;22.75;;;;;9.94;40.50;101636.88;4977299;28;45379;-61
2023/04/05 09:10:19;;;;;;;;;33.00;29.50;;;;;9.89;40.27;101622.84;4992129;28;46877;-62
2023/04/05 09:12:45;;;;;;;;;26.75;24.75;;;;;10.08;39.85;101642.56;4993768;28;45369;-61
2023/04/05 09:15:10;;;;;;;;;29.25;29.25;;;;;10.06;39.73;101636.41;4980826;28;45449;-60
2023/04/05 09:17:38;;;;;;;;;22.50;18.50;;;;;10.11;39.18;101632.06;4974258;28;45414;-63
2023/04/05 09:20:04;;;;;;;;;24.20;23.20;;;;;10.13;37.77;101624.50;4990284;28;46906;-59
2023/04/05 09:22:30;;;;;;;;;23.80;21.60;;;;;10.22;38.16;101630.75;4993915;28;45484;-60
2023/04/05 09:24:55;;;;;;;;;26.60;23.40;;;;;10.28;38.89;101632.75;4990062;28;45413;-59
2023/04/05 09:27:21;;;;;;;;;26.50;22.50;;;;;10.37;38.10;101630.78;5014335;28;45701;-60
2023/04/05 09:29:47;;;;;;;;;28.75;20.50;;;;;10.37;37.34;101627.16;4998904;28;45850;-62
2023/04/05 09:32:14;;;;;;;;;21.60;20.80;;;;;10.40;37.51;101630.38;4975630;28;45447;-60
2023/04/05 09:34:41;;;;;;;;;19.40;18.60;;;;;10.27;37.12;101611.84;4962791;28;45603;-61
2023/04/05 09:37:17;;;;;;;;;20.00;15.60;;;;;10.48;37.10;101634.09;5002810;28;45690;-61
2023/04/05 09:39:43;;;;;;;;;23.40;21.00;;;;;10.51;35.74;101633.75;4988489;28;46887;-62
2023/04/05 09:42:10;;;;;;;;;14.75;14.75;;;;;10.47;35.50;101613.19;4988269;28;45490;-62
2023/04/05 09:44:56;;;;;;;;;20.80;18.80;;;;;10.61;35.51;101623.31;4989562;28;45365;-62
2023/04/05 09:47:33;;;;;;;;;24.20;20.40;;;;;10.67;35.52;101618.97;4975661;28;45314;-62
2023/04/05 09:50:14;;;;;;;;;25.60;21.60;;;;;10.59;35.73;101611.66;4981839;28;46081;-62
2023/04/05 09:52:40;;;;;;;;;20.60;19.80;;;;;10.69;34.93;101600.41;4973820;28;45900;-62
2023/04/05 09:55:06;;;;;;;;;26.00;23.25;;;;;10.79;35.23;101611.91;4973290;28;45750;-62
2023/04/05 09:57:38;;;;;;;;;20.80;17.20;;;;;10.88;34.86;101615.41;4973916;28;45630;-62
2023/04/05 10:00:05;;;;;;;;;19.80;19.80;;;;;10.94;34.35;101617.38;4979354;28;45949;-63
2023/04/05 10:02:38;;;;;;;;;24.00;21.40;;;;;10.97;34.09;101608.78;4993405;28;45623;-62
2023/04/05 10:05:12;;;;;;;;;26.00;20.60;;;;;11.02;34.50;101610.06;4993484;28;45451;-62
2023/04/05 10:07:38;;;;;;;;;28.00;20.40;;;;;11.07;34.60;101608.47;4992704;28;45376;-61
2023/04/05 10:10:04;;;;;;;;;20.60;19.40;;;;;11.19;34.95;101605.19;4991590;28;46096;-61
2023/04/05 10:12:30;;;;;;;;;27.00;22.75;;;;;11.26;34.89;101608.84;4994098;28;45508;-62
2023/04/05 10:14:58;;;;;;;;;19.25;16.75;;;;;11.04;33.74;101567.63;4986664;28;45438;-62
2023/04/05 10:17:33;;;;;;;;;21.40;21.40;;;;;11.33;33.48;101611.69;4984951;28;45359;-62
2023/04/05 10:20:17;;;;;;;;;26.00;20.60;;;;;11.42;33.67;101594.00;4993438;28;46791;-63
2023/04/05 10:23:04;;;;;;;;;24.40;22.40;;;;;11.45;33.03;101599.13;4992511;28;45712;-62
2023/04/05 10:25:52;;;;;;;;;20.40;17.00;;;;;11.56;34.20;101596.88;4992467;28;45336;-60
2023/04/05 10:28:46;;;;;;;;;27.00;22.40;;;;;11.58;33.05;101581.88;4976364;28;45417;-61
2023/04/05 10:31:30;;;;;;;;;21.80;19.00;;;;;11.61;32.76;101587.00;4986766;28;46781;-61
2023/04/05 10:34:12;;;;;;;;;28.60;21.00;;;;;11.72;32.72;101588.34;4993673;28;45769;-63
2023/04/05 10:36:49;;;;;;;;;26.40;21.00;;;;;11.83;33.26;101575.09;4985131;28;45416;-64
2023/04/05 10:39:34;;;;;;;;;29.60;22.00;;;;;11.99;32.76;101579.44;4992877;28;45851;-63
2023/04/05 10:42:18;;;;;;;;;30.40;24.20;;;;;12.09;33.12;101576.34;5002988;28;46131;-64
2023/04/05 10:44:45;;;;;;;;;22.00;21.40;;;;;12.18;32.36;101569.66;5012296;28;45362;-65
2023/04/05 10:47:12;;;;;;;;;22.40;18.80;;;;;11.97;32.29;101519.13;5003283;28;45637;-63
2023/04/05 10:49:39;;;;;;;;;24.60;19.40;;;;;12.36;31.72;101562.75;5005831;28;45409;-62
2023/04/05 10:52:04;;;;;;;;;27.20;22.40;;;;;12.40;31.11;101562.16;4993845;28;46304;-64
2023/04/05 10:54:35;;;;;;;;;29.75;22.00;;;;;12.47;31.77;101568.56;4991886;28;45900;-63
2023/04/05 10:57:02;;;;;;;;;29.80;25.80;;;;;12.56;31.43;101560.97;4993677;28;45585;-63
2023/04/05 10:59:28;;;;;;;;;21.80;21.40;;;;;12.63;31.43;101565.66;4993818;28;45463;-63
2023/04/05 11:01:53;;;;;;;;;29.50;25.25;;;;;12.26;30.95;101511.69;4990927;28;46005;-63
2023/04/05 11:04:20;;;;;;;;;32.00;25.25;;;;;12.69;32.09;101549.13;4992131;28;45517;-63
2023/04/05 11:06:46;;;;;;;;;34.40;23.20;;;;;12.76;32.07;101549.19;4976133;28;45460;-62
2023/04/05 11:09:16;;;;;;;;;38.40;28.20;;;;;12.92;31.25;101539.66;4972902;28;45755;-63
2023/04/05 11:11:43;;;;;;;;;19.00;16.20;;;;;13.10;31.02;101541.84;4975154;28;45425;-65
2023/04/05 11:14:22;;;;;;;;;26.60;23.60;;;;;13.15;31.23;101531.00;4975164;28;45503;-62
2023/04/05 11:16:58;;;;;;;;;24.60;24.20;;;;;13.20;30.42;101544.19;4974987;28;45442;-61